createdAt,value
2018-02-20T00:02:18.750Z,23.95
2018-02-20T00:04:47.078Z,22.13
2018-02-20T00:07:15.839Z,23.42
2018-02-20T00:09:44.226Z,23.52
2018-02-20T00:12:13.732Z,25.67
2018-02-20T00:14:43.750Z,21.33
2018-02-20T00:17:12.164Z,24.23
2018-02-20T00:19:40.715Z,25.15
2018-02-20T00:22:09.051Z,23.45
2018-02-20T00:24:37.399Z,23.02
2018-02-20T00:27:05.775Z,23.08
2018-02-20T00:29:34.107Z,25.58
2018-02-20T00:32:02.571Z,27.95
2018-02-20T00:34:30.929Z,22.83
2018-02-20T00:36:59.234Z,21.67
2018-02-20T00:39:27.663Z,27.02
2018-02-20T00:41:56.355Z,29.05
2018-02-20T00:44:24.752Z,27.55
2018-02-20T00:46:53.088Z,24.85
2018-02-20T00:49:22.466Z,26.87
2018-02-20T00:51:51.655Z,22.95
2018-02-20T00:54:20.101Z,24.05
2018-02-20T00:56:48.428Z,23.77
2018-02-20T00:59:17.502Z,25.42
2018-02-20T01:01:46.668Z,23.80
2018-02-20T01:04:14.984Z,27.73
2018-02-20T01:06:43.358Z,25.25
2018-02-20T01:09:11.693Z,25.60
2018-02-20T01:11:40.084Z,27.50
2018-02-20T01:14:09.226Z,27.65
2018-02-20T01:16:38.651Z,27.75
2018-02-20T01:19:06.986Z,26.62
2018-02-20T01:21:35.322Z,34.55
2018-02-20T01:24:03.660Z,29.42
2018-02-20T01:26:32.832Z,27.10
2018-02-20T01:29:01.229Z,30.85
2018-02-20T01:31:30.509Z,27.10
2018-02-20T01:33:59.036Z,30.10
2018-02-20T01:36:27.390Z,30.25
2018-02-20T01:38:56.524Z,29.52
2018-02-20T01:41:24.948Z,30.92
2018-02-20T01:43:54.068Z,30.73
2018-02-20T01:46:23.165Z,27.37
2018-02-20T01:48:52.261Z,30.27
2018-02-20T01:51:21.428Z,27.08
2018-02-20T01:53:50.739Z,30.45
2018-02-20T01:56:19.857Z,29.02
2018-02-20T01:58:48.171Z,29.73
2018-02-20T02:01:16.506Z,33.13
2018-02-20T02:03:44.822Z,27.08
2018-02-20T02:06:13.149Z,30.00
2018-02-20T02:08:41.507Z,28.33
2018-02-20T02:11:10.616Z,27.90
2018-02-20T02:13:39.737Z,33.10
2018-02-20T02:16:08.242Z,29.63
2018-02-20T02:18:36.598Z,25.65
2018-02-20T02:21:04.939Z,29.90
2018-02-20T02:23:34.098Z,29.52
2018-02-20T02:26:02.601Z,28.55
2018-02-20T02:28:30.918Z,29.83
2018-02-20T02:30:59.272Z,30.05
2018-02-20T02:33:28.616Z,30.37
2018-02-20T02:35:56.959Z,30.75
2018-02-20T02:38:26.043Z,30.65
2018-02-20T02:40:55.150Z,30.05
2018-02-20T02:43:23.467Z,25.62
2018-02-20T02:45:51.800Z,29.70
2018-02-20T02:48:20.902Z,29.52
2018-02-20T02:50:49.242Z,30.58
2018-02-20T02:53:17.581Z,29.05
2018-02-20T02:55:45.917Z,25.60
2018-02-20T02:58:15.008Z,31.27
2018-02-20T03:00:45.114Z,34.03
2018-02-20T03:03:13.457Z,29.00
2018-02-20T03:05:41.854Z,33.72
2018-02-20T03:08:10.307Z,31.50
2018-02-20T03:10:39.308Z,30.60
2018-02-20T03:13:07.722Z,33.63
2018-02-20T03:15:36.802Z,29.12
2018-02-20T03:18:05.113Z,34.58
2018-02-20T03:20:33.513Z,28.40
2018-02-20T03:23:01.846Z,31.08
2018-02-20T03:25:30.990Z,30.15
2018-02-20T03:27:59.314Z,29.87
2018-02-20T03:30:28.425Z,31.25
2018-02-20T03:32:56.931Z,31.65
2018-02-20T03:35:25.318Z,30.62
2018-02-20T03:37:53.647Z,28.50
2018-02-20T03:40:21.984Z,29.35
2018-02-20T03:42:50.391Z,29.37
2018-02-20T03:45:18.679Z,32.03
2018-02-20T03:47:47.789Z,31.05
2018-02-20T03:50:16.118Z,28.15
2018-02-20T03:52:44.611Z,34.28
2018-02-20T03:55:12.921Z,30.48
2018-02-20T03:57:41.299Z,34.22
2018-02-20T04:00:09.724Z,33.38
2018-02-20T04:02:38.060Z,33.28
2018-02-20T04:05:06.418Z,30.40
2018-02-20T04:07:34.814Z,32.30
2018-02-20T04:10:03.179Z,27.30
2018-02-20T04:12:32.249Z,32.30
2018-02-20T04:15:01.265Z,28.25
2018-02-20T04:17:30.333Z,27.02
2018-02-20T04:19:59.421Z,27.98
2018-02-20T04:22:27.865Z,29.00
2018-02-20T04:24:56.213Z,31.70
2018-02-20T04:27:24.559Z,29.05
2018-02-20T04:29:54.598Z,27.95
2018-02-20T04:32:23.709Z,26.00
2018-02-20T04:34:52.180Z,29.05
2018-02-20T04:37:20.608Z,28.73
2018-02-20T04:39:48.912Z,29.20
2018-02-20T04:42:18.026Z,30.42
2018-02-20T04:44:47.090Z,28.20
2018-02-20T04:47:15.418Z,24.67
2018-02-20T04:49:43.759Z,36.28
2018-02-20T04:52:12.866Z,30.50
2018-02-20T04:54:41.975Z,29.77
2018-02-20T04:57:10.388Z,28.35
2018-02-20T04:59:39.395Z,29.10
2018-02-20T05:02:08.701Z,28.95
2018-02-20T05:04:37.312Z,30.37
2018-02-20T05:07:06.564Z,27.52
2018-02-20T05:09:34.923Z,28.05
2018-02-20T05:12:03.251Z,31.98
2018-02-20T05:14:32.507Z,30.48
2018-02-20T05:17:01.658Z,34.22
2018-02-20T05:19:29.992Z,36.72
2018-02-20T05:21:58.344Z,31.77
2018-02-20T05:24:26.690Z,28.85
2018-02-20T05:26:55.897Z,34.30
2018-02-20T05:29:24.209Z,32.60
2018-02-20T05:31:52.538Z,32.65
2018-02-20T05:34:24.886Z,35.85
2018-02-20T05:36:53.239Z,31.30
2018-02-20T05:39:21.659Z,32.53
2018-02-20T05:41:50.764Z,29.15
2018-02-20T05:44:19.271Z,27.30
2018-02-20T05:46:47.612Z,34.05
2018-02-20T05:49:16.760Z,32.53
2018-02-20T05:51:46.986Z,29.95
2018-02-20T05:54:15.318Z,29.35
2018-02-20T05:56:43.626Z,27.73
2018-02-20T05:59:12.028Z,28.85
2018-02-20T06:01:41.636Z,28.75
2018-02-20T06:04:11.250Z,29.63
2018-02-20T06:06:41.048Z,42.40
2018-02-20T06:09:10.184Z,40.00
2018-02-20T06:11:40.067Z,31.23
2018-02-20T06:14:08.402Z,36.38
2018-02-20T06:16:36.754Z,32.58
2018-02-20T06:19:05.372Z,34.55
2018-02-20T06:21:35.028Z,32.78
2018-02-20T06:24:03.392Z,30.27
2018-02-20T06:26:31.742Z,29.95
2018-02-20T06:29:00.059Z,28.80
2018-02-20T06:31:29.193Z,29.02
2018-02-20T06:33:57.509Z,34.25
2018-02-20T06:36:26.598Z,29.27
2018-02-20T06:38:55.719Z,31.55
2018-02-20T06:41:24.817Z,30.88
2018-02-20T06:43:53.270Z,37.33
2018-02-20T06:46:21.912Z,31.23
2018-02-20T06:48:50.247Z,27.27
2018-02-20T06:51:19.928Z,28.45
2018-02-20T06:53:49.043Z,25.95
2018-02-20T06:56:18.125Z,27.60
2018-02-20T06:58:46.543Z,29.40
2018-02-20T07:01:14.905Z,27.37
2018-02-20T07:03:44.077Z,28.58
2018-02-20T07:06:13.239Z,27.80
2018-02-20T07:08:41.635Z,25.90
2018-02-20T07:11:10.223Z,25.25
2018-02-20T07:13:38.762Z,31.55
2018-02-20T07:16:07.291Z,27.67
2018-02-20T07:18:37.303Z,33.72
2018-02-20T07:21:07.334Z,34.25
2018-02-20T07:23:36.603Z,27.75
2018-02-20T07:26:05.028Z,36.25
2018-02-20T07:28:34.144Z,34.33
2018-02-20T07:31:02.444Z,33.22
2018-02-20T07:33:30.901Z,31.23
2018-02-20T07:35:59.385Z,33.13
2018-02-20T07:38:27.752Z,29.52
2018-02-20T07:40:56.926Z,28.70
2018-02-20T07:43:26.185Z,33.58
2018-02-20T07:45:54.588Z,30.90
2018-02-20T07:48:23.092Z,32.05
2018-02-20T07:50:51.436Z,47.80
2018-02-20T07:53:19.765Z,33.42
2018-02-20T07:55:48.853Z,37.60
2018-02-20T07:58:17.200Z,42.58
2018-02-20T08:00:46.337Z,35.10
2018-02-20T08:03:15.582Z,34.38
2018-02-20T08:05:44.140Z,35.83
2018-02-20T08:08:12.547Z,31.25
2018-02-20T08:10:41.815Z,33.03
2018-02-20T08:13:10.170Z,37.75
2018-02-20T08:15:38.508Z,29.58
2018-02-20T08:18:07.606Z,34.17
2018-02-20T08:20:36.897Z,25.80
2018-02-20T08:23:05.231Z,27.37
2018-02-20T08:25:33.564Z,28.83
2018-02-20T08:28:02.658Z,25.58
2018-02-20T08:30:31.736Z,28.83
2018-02-20T08:33:00.991Z,24.65
2018-02-20T08:35:29.431Z,28.62
2018-02-20T08:37:57.749Z,34.03
2018-02-20T08:40:26.179Z,31.73
2018-02-20T08:42:55.305Z,33.35
2018-02-20T08:45:24.726Z,35.05
2018-02-20T08:47:53.066Z,38.65
2018-02-20T08:50:22.203Z,32.92
2018-02-20T08:52:50.907Z,42.38
2018-02-20T08:55:20.574Z,34.30
2018-02-20T08:57:48.995Z,35.30
2018-02-20T09:00:18.055Z,39.50
2018-02-20T09:02:47.845Z,41.60
2018-02-20T09:05:16.565Z,36.38
2018-02-20T09:07:44.932Z,32.85
2018-02-20T09:10:13.374Z,37.47
2018-02-20T09:12:41.951Z,39.45
2018-02-20T09:15:10.266Z,34.65
2018-02-20T09:17:38.875Z,32.45
2018-02-20T09:20:08.839Z,39.60
2018-02-20T09:22:37.575Z,36.13
2018-02-20T09:25:07.046Z,35.00
2018-02-20T09:27:35.634Z,33.78
2018-02-20T09:30:04.066Z,34.63
2018-02-20T09:32:33.508Z,29.42
2018-02-20T09:35:03.210Z,35.33
2018-02-20T09:37:32.302Z,37.90
2018-02-20T09:40:02.218Z,34.92
2018-02-20T09:42:30.650Z,40.35
2018-02-20T09:45:00.096Z,37.45
2018-02-20T09:47:28.949Z,40.47
2018-02-20T09:49:58.119Z,36.42
2018-02-20T09:52:26.902Z,29.20
2018-02-20T09:54:56.094Z,32.42
2018-02-20T09:57:24.970Z,37.40
2018-02-20T09:59:54.219Z,32.50
2018-02-20T10:02:23.324Z,36.00
2018-02-20T10:04:51.704Z,39.80
2018-02-20T10:07:20.809Z,36.17
2018-02-20T10:09:49.840Z,41.83
2018-02-20T10:12:18.235Z,31.12
2018-02-20T10:14:46.636Z,34.63
2018-02-20T10:17:15.026Z,40.00
2018-02-20T10:19:43.405Z,32.25
2018-02-20T10:22:11.787Z,41.17
2018-02-20T10:24:40.145Z,37.10
2018-02-20T10:27:09.208Z,33.67
2018-02-20T10:29:37.550Z,37.55
2018-02-20T10:32:06.475Z,36.78
2018-02-20T10:34:34.818Z,38.83
2018-02-20T10:37:03.256Z,38.15
2018-02-20T10:39:32.386Z,40.55
2018-02-20T10:42:00.915Z,34.33
2018-02-20T10:44:30.041Z,43.95
2018-02-20T10:46:58.371Z,31.98
2018-02-20T10:49:26.948Z,33.90
2018-02-20T10:51:55.303Z,37.42
2018-02-20T10:54:23.691Z,38.70
2018-02-20T10:56:52.015Z,33.75
2018-02-20T10:59:21.140Z,35.53
2018-02-20T11:01:49.631Z,39.08
2018-02-20T11:04:18.250Z,36.08
2018-02-20T11:06:46.910Z,32.63
2018-02-20T11:09:16.747Z,37.60
2018-02-20T11:11:45.090Z,35.35
2018-02-20T11:14:13.440Z,33.72
2018-02-20T11:16:41.960Z,34.08
2018-02-20T11:19:10.419Z,36.40
2018-02-20T11:21:38.758Z,35.38
2018-02-20T11:24:07.871Z,32.70
2018-02-20T11:26:36.374Z,31.92
2018-02-20T11:29:05.482Z,35.75
2018-02-20T11:31:33.824Z,33.08
2018-02-20T11:34:02.324Z,39.22
2018-02-20T11:36:32.871Z,36.65
2018-02-20T11:39:02.295Z,53.72
2018-02-20T11:41:30.664Z,35.72
2018-02-20T11:43:58.987Z,34.00
2018-02-20T11:46:27.311Z,32.80
2018-02-20T11:48:55.659Z,38.78
2018-02-20T11:51:23.991Z,35.30
2018-02-20T11:56:26.788Z,40.95
2018-02-20T11:58:55.987Z,37.55
2018-02-20T12:01:25.129Z,41.60
2018-02-20T12:03:53.507Z,38.47
2018-02-20T12:06:21.862Z,39.15
2018-02-20T12:08:50.320Z,39.38
2018-02-20T12:11:20.149Z,35.15
2018-02-20T12:13:48.642Z,34.47
2018-02-20T12:16:16.973Z,38.65
2018-02-20T12:18:45.339Z,37.70
2018-02-20T12:21:13.730Z,33.22
2018-02-20T12:23:42.832Z,38.55
2018-02-20T12:26:11.965Z,37.00
2018-02-20T12:28:40.361Z,35.38
2018-02-20T12:31:09.363Z,37.47
2018-02-20T12:33:37.739Z,39.88
2018-02-20T12:36:06.082Z,42.05
2018-02-20T12:38:34.697Z,48.85
2018-02-20T12:41:03.912Z,37.05
2018-02-20T12:43:33.101Z,37.28
2018-02-20T12:46:01.576Z,33.70
2018-02-20T12:48:29.900Z,38.83
2018-02-20T12:50:58.305Z,36.42
2018-02-20T12:53:26.635Z,40.50
2018-02-20T12:55:55.802Z,34.25
2018-02-20T12:58:24.192Z,35.08
2018-02-20T13:00:52.594Z,37.38
2018-02-20T13:03:21.741Z,37.50
2018-02-20T13:05:50.100Z,40.85
2018-02-20T13:08:18.571Z,36.13
2018-02-20T13:10:46.940Z,40.50
2018-02-20T13:13:15.512Z,35.92
2018-02-20T13:15:43.921Z,38.75
2018-02-20T13:18:12.276Z,33.13
2018-02-20T13:20:41.105Z,38.67
2018-02-20T13:23:09.671Z,31.67
2018-02-20T13:25:38.142Z,34.70
2018-02-20T13:28:07.099Z,31.37
2018-02-20T13:30:35.894Z,35.85
2018-02-20T13:33:04.896Z,30.60
2018-02-20T13:35:33.746Z,38.15
2018-02-20T13:38:03.455Z,30.20
2018-02-20T13:40:31.834Z,32.42
2018-02-20T13:43:00.882Z,30.40
2018-02-20T13:45:29.815Z,39.20
2018-02-20T13:47:59.288Z,27.75
2018-02-20T13:50:28.056Z,34.10
2018-02-20T13:52:58.079Z,28.60
2018-02-20T13:55:27.620Z,29.67
2018-02-20T13:57:56.272Z,31.17
2018-02-20T14:00:25.170Z,33.25
2018-02-20T14:02:54.028Z,31.47
2018-02-20T14:05:23.136Z,33.95
2018-02-20T14:07:52.068Z,36.25
2018-02-20T14:10:20.933Z,32.78
2018-02-20T14:12:53.702Z,31.85
2018-02-20T14:15:22.336Z,31.60
2018-02-20T14:17:52.374Z,30.85
2018-02-20T14:20:21.526Z,36.75
2018-02-20T14:22:50.075Z,31.02
2018-02-20T14:25:19.180Z,30.73
2018-02-20T14:27:47.927Z,33.60
2018-02-20T14:30:17.358Z,33.55
2018-02-20T14:32:54.291Z,28.25
2018-02-20T14:35:23.978Z,31.58
2018-02-20T14:37:52.958Z,32.92
2018-02-20T14:40:22.944Z,33.30
2018-02-20T14:42:55.304Z,31.25
2018-02-20T14:45:24.117Z,26.98
2018-02-20T14:47:53.792Z,27.20
2018-02-20T14:50:25.145Z,29.83
2018-02-20T14:52:54.271Z,28.62
2018-02-20T14:55:24.241Z,32.15
2018-02-20T14:57:53.635Z,37.20
2018-02-20T15:00:23.833Z,37.17
2018-02-20T15:02:52.535Z,29.87
2018-02-20T15:05:21.486Z,30.00
2018-02-20T15:07:51.307Z,32.10
2018-02-20T15:10:20.190Z,31.17
2018-02-20T15:12:50.456Z,31.60
2018-02-20T15:15:19.705Z,34.65
2018-02-20T15:17:48.498Z,29.60
2018-02-20T15:20:17.503Z,35.63
2018-02-20T15:22:47.428Z,33.42
2018-02-20T15:25:16.476Z,34.28
2018-02-20T15:27:45.137Z,35.38
2018-02-20T15:30:14.741Z,36.30
2018-02-20T15:32:44.499Z,38.83
2018-02-20T15:35:14.182Z,34.10
2018-02-20T15:37:43.116Z,33.95
2018-02-20T15:40:11.742Z,34.13
2018-02-20T15:42:40.439Z,33.03
2018-02-20T15:45:09.243Z,30.98
2018-02-20T15:47:38.080Z,30.80
2018-02-20T15:50:08.351Z,32.90
2018-02-20T15:52:37.137Z,36.88
2018-02-20T15:55:07.338Z,33.28
2018-02-20T15:57:36.458Z,33.42
2018-02-20T16:00:05.411Z,32.13
2018-02-20T16:02:35.168Z,32.65
2018-02-20T16:05:03.941Z,36.30
2018-02-20T16:07:33.058Z,34.83
2018-02-20T16:10:03.229Z,32.58
2018-02-20T16:12:31.911Z,40.92
2018-02-20T16:15:00.626Z,34.83
2018-02-20T16:17:29.671Z,31.00
2018-02-20T16:19:59.832Z,33.55
2018-02-20T16:22:28.719Z,33.38
2018-02-20T16:24:57.205Z,32.30
2018-02-20T16:27:26.840Z,32.85
2018-02-20T16:29:55.793Z,38.67
2018-02-20T16:32:24.348Z,37.08
2018-02-20T16:34:53.756Z,34.92
2018-02-20T16:37:22.573Z,35.38
2018-02-20T16:39:52.686Z,34.90
2018-02-20T16:42:21.576Z,35.50
2018-02-20T16:44:50.191Z,37.35
2018-02-20T16:47:20.175Z,38.83
2018-02-20T16:49:49.070Z,38.15
2018-02-20T16:52:18.682Z,31.90
2018-02-20T16:54:49.515Z,34.75
2018-02-20T16:57:18.386Z,40.38
2018-02-20T16:59:46.982Z,36.38
2018-02-20T17:02:15.665Z,43.00
2018-02-20T17:04:44.248Z,44.75
2018-02-20T17:07:12.666Z,40.50
2018-02-20T17:09:42.033Z,39.65
2018-02-20T17:12:10.652Z,38.17
2018-02-20T17:14:39.644Z,42.65
2018-02-20T17:17:09.024Z,39.47
2018-02-20T17:19:37.555Z,39.72
2018-02-20T17:22:06.169Z,38.45
2018-02-20T17:24:35.261Z,35.33
2018-02-20T17:27:04.008Z,38.58
2018-02-20T17:29:32.725Z,37.65
2018-02-20T17:32:02.680Z,36.08
2018-02-20T17:34:36.606Z,39.90
2018-02-20T17:37:07.339Z,38.47
2018-02-20T17:39:38.549Z,37.35
2018-02-20T17:42:09.005Z,35.40
2018-02-20T17:44:40.309Z,39.75
2018-02-20T17:47:11.679Z,33.53
2018-02-20T17:49:41.455Z,41.70
2018-02-20T17:52:10.460Z,41.92
2018-02-20T17:54:40.525Z,35.20
2018-02-20T17:57:09.616Z,36.85
2018-02-20T17:59:39.839Z,38.08
2018-02-20T18:02:09.337Z,43.03
2018-02-20T18:04:38.129Z,43.97
2018-02-20T18:07:08.430Z,56.85
2018-02-20T18:09:37.872Z,39.65
2018-02-20T18:12:06.633Z,35.72
2018-02-20T18:14:35.244Z,41.83
2018-02-20T18:17:03.879Z,42.62
2018-02-20T18:19:32.725Z,41.37
2018-02-20T18:22:01.386Z,44.30
2018-02-20T18:24:30.835Z,48.13
2018-02-20T18:26:59.633Z,53.47
2018-02-20T18:29:28.458Z,48.47
2018-02-20T18:31:57.665Z,45.83
2018-02-20T18:34:26.686Z,43.60
2018-02-20T18:36:55.333Z,48.70
2018-02-20T18:39:24.129Z,43.22
2018-02-20T18:41:54.142Z,45.28
2018-02-20T18:44:22.691Z,44.60
2018-02-20T18:46:51.436Z,44.45
2018-02-20T18:49:20.050Z,46.37
2018-02-20T18:51:50.297Z,52.80
2018-02-20T18:54:19.045Z,47.03
2018-02-20T18:56:48.579Z,47.70
2018-02-20T18:59:17.217Z,48.40
2018-02-20T19:01:45.728Z,49.67
2018-02-20T19:04:14.593Z,49.67
2018-02-20T19:06:43.477Z,52.90
2018-02-20T19:09:13.406Z,44.70
2018-02-20T19:11:43.519Z,50.47
2018-02-20T19:14:12.175Z,51.13
2018-02-20T19:16:40.945Z,50.72
2018-02-20T19:19:09.577Z,40.53
2018-02-20T19:21:38.400Z,46.25
2018-02-20T19:24:07.673Z,52.60
2018-02-20T19:26:36.727Z,45.50
2018-02-20T19:29:06.308Z,49.95
2018-02-20T19:31:35.137Z,48.70
2018-02-20T19:34:05.611Z,56.08
2018-02-20T19:36:34.482Z,42.92
2018-02-20T19:39:04.915Z,49.63
2018-02-20T19:41:33.693Z,51.78
2018-02-20T19:44:02.654Z,44.92
2018-02-20T19:46:31.747Z,47.90
2018-02-20T19:49:00.302Z,53.80
2018-02-20T19:51:29.222Z,49.20
2018-02-20T19:53:58.150Z,50.20
2018-02-20T19:56:26.690Z,49.60
2018-02-20T19:58:56.510Z,45.22
2018-02-20T20:01:25.032Z,41.47
2018-02-20T20:03:53.574Z,46.95
2018-02-20T20:06:22.454Z,51.40
2018-02-20T20:08:51.414Z,48.60
2018-02-20T20:11:20.928Z,45.45
2018-02-20T20:13:49.540Z,52.60
2018-02-20T20:16:18.167Z,48.92
2018-02-20T20:18:47.690Z,47.40
2018-02-20T20:21:16.308Z,43.78
2018-02-20T20:23:45.076Z,48.65
2018-02-20T20:26:14.563Z,48.60
2018-02-20T20:28:43.687Z,51.30
2018-02-20T20:31:12.205Z,47.22
2018-02-20T20:33:41.075Z,43.80
2018-02-20T20:36:09.944Z,44.17
2018-02-20T20:38:38.508Z,47.75
2018-02-20T20:41:07.213Z,49.50
2018-02-20T20:43:35.767Z,42.33
2018-02-20T20:46:04.251Z,44.97
2018-02-20T20:48:33.057Z,45.30
2018-02-20T20:51:01.888Z,45.50
2018-02-20T20:53:30.836Z,40.67
2018-02-20T20:55:59.441Z,46.13
2018-02-20T20:58:29.974Z,45.95
2018-02-20T21:00:59.325Z,44.25
2018-02-20T21:03:27.873Z,43.30
2018-02-20T21:05:57.213Z,44.42
2018-02-20T21:08:25.772Z,44.30
2018-02-20T21:10:54.929Z,49.10
2018-02-20T21:13:24.413Z,44.97
2018-02-20T21:15:54.092Z,49.97
2018-02-20T21:18:22.493Z,43.05
2018-02-20T21:20:51.037Z,36.80
2018-02-20T21:23:20.479Z,42.33
2018-02-20T21:25:49.133Z,44.78
2018-02-20T21:28:17.509Z,40.70
2018-02-20T21:30:46.609Z,42.55
2018-02-20T21:33:14.938Z,47.95
2018-02-20T21:35:43.401Z,40.08
2018-02-20T21:38:11.867Z,42.58
2018-02-20T21:40:40.203Z,40.97
2018-02-20T21:43:10.423Z,45.28
2018-02-20T21:45:39.524Z,46.55
2018-02-20T21:48:08.690Z,42.42
2018-02-20T21:50:37.904Z,39.28
2018-02-20T21:53:07.045Z,45.08
2018-02-20T21:55:35.421Z,47.85
2018-02-20T21:58:03.973Z,38.38
2018-02-20T22:00:33.998Z,40.65
2018-02-20T22:03:02.710Z,38.47
2018-02-20T22:05:31.617Z,39.95
2018-02-20T22:07:59.988Z,40.88
2018-02-20T22:10:28.623Z,36.13
2018-02-20T22:12:57.291Z,38.90
2018-02-20T22:15:25.740Z,35.47
2018-02-20T22:17:54.277Z,40.12
2018-02-20T22:20:23.161Z,41.42
2018-02-20T22:22:54.423Z,42.72
2018-02-20T22:25:23.214Z,39.53
2018-02-20T22:27:52.020Z,43.08
2018-02-20T22:30:20.565Z,43.03
2018-02-20T22:32:49.329Z,38.70
2018-02-20T22:35:19.522Z,44.97
2018-02-20T22:37:48.095Z,41.17
2018-02-20T22:40:17.348Z,41.30
2018-02-20T22:42:46.440Z,40.25
2018-02-20T22:45:15.113Z,41.97
2018-02-20T22:47:44.320Z,42.65
2018-02-20T22:50:12.729Z,43.25
2018-02-20T22:52:42.239Z,41.08
2018-02-20T22:55:11.439Z,42.97
2018-02-20T22:57:39.927Z,42.65
2018-02-20T23:00:09.145Z,39.67
2018-02-20T23:02:39.771Z,39.25
2018-02-20T23:05:08.991Z,38.60
2018-02-20T23:07:38.604Z,40.47
2018-02-20T23:10:07.325Z,36.95
2018-02-20T23:12:36.428Z,45.88
2018-02-20T23:15:04.927Z,42.35
2018-02-20T23:17:33.260Z,41.50
2018-02-20T23:20:01.743Z,44.08
2018-02-20T23:22:30.209Z,39.97
2018-02-20T23:24:58.648Z,46.42
2018-02-20T23:27:27.023Z,42.78
2018-02-20T23:29:56.434Z,44.97
2018-02-20T23:32:24.777Z,39.10
2018-02-20T23:34:53.122Z,42.65
2018-02-20T23:37:22.400Z,40.05
2018-02-20T23:39:52.247Z,41.65
2018-02-20T23:42:20.769Z,46.15
2018-02-20T23:44:49.083Z,40.70
2018-02-20T23:47:22.085Z,42.92
2018-02-20T23:49:50.976Z,40.45
2018-02-20T23:52:21.180Z,45.15
2018-02-20T23:54:49.810Z,36.83
2018-02-20T23:57:18.674Z,42.47
2018-02-20T23:59:47.017Z,39.50
